sensor_id;sensor_type;location;lat;lon;timestamp;temperature;humidity
4687;DHT22;2357;47.316;-1.348;2023-02-28T00:00:13;3.50;99.90
4687;DHT22;2357;47.316;-1.348;2023-02-28T00:02:40;3.50;99.90
4687;DHT22;2357;47.316;-1.348;2023-02-28T00:05:07;3.30;99.90
4687;DHT22;2357;47.316;-1.348;2023-02-28T00:07:33;3.40;99.90
4687;DHT22;2357;47.316;-1.348;2023-02-28T00:09:59;3.30;99.90
4687;DHT22;2357;47.316;-1.348;2023-02-28T00:12:25;3.30;99.90
4687;DHT22;2357;47.316;-1.348;2023-02-28T00:14:51;3.40;99.90
4687;DHT22;2357;47.316;-1.348;2023-02-28T00:17:17;3.30;99.90
4687;DHT22;2357;47.316;-1.348;2023-02-28T00:19:50;3.30;99.90
4687;DHT22;2357;47.316;-1.348;2023-02-28T00:22:16;3.30;99.90
4687;DHT22;2357;47.316;-1.348;2023-02-28T00:24:42;3.30;99.90
4687;DHT22;2357;47.316;-1.348;2023-02-28T00:27:08;3.30;99.90
4687;DHT22;2357;47.316;-1.348;2023-02-28T00:29:34;3.20;99.90
4687;DHT22;2357;47.316;-1.348;2023-02-28T00:32:00;3.30;99.90
4687;DHT22;2357;47.316;-1.348;2023-02-28T00:34:26;3.20;99.90
4687;DHT22;2357;47.316;-1.348;2023-02-28T00:36:51;3.20;99.90
4687;DHT22;2357;47.316;-1.348;2023-02-28T00:39:17;3.30;99.90
4687;DHT22;2357;47.316;-1.348;2023-02-28T00:41:42;3.20;99.90
4687;DHT22;2357;47.316;-1.348;2023-02-28T00:44:08;3.10;99.90
4687;DHT22;2357;47.316;-1.348;2023-02-28T00:46:34;3.20;99.90
4687;DHT22;2357;47.316;-1.348;2023-02-28T00:49:00;3.20;99.90
4687;DHT22;2357;47.316;-1.348;2023-02-28T00:51:26;3.20;99.90
4687;DHT22;2357;47.316;-1.348;2023-02-28T00:53:51;3.10;99.90
4687;DHT22;2357;47.316;-1.348;2023-02-28T00:56:17;3.20;99.90
4687;DHT22;2357;47.316;-1.348;2023-02-28T00:58:43;3.20;99.90
4687;DHT22;2357;47.316;-1.348;2023-02-28T01:01:08;3.20;99.90
4687;DHT22;2357;47.316;-1.348;2023-02-28T01:03:34;3.10;99.90
4687;DHT22;2357;47.316;-1.348;2023-02-28T01:06:00;3.10;99.90
4687;DHT22;2357;47.316;-1.348;2023-02-28T01:08:25;3.00;99.90
4687;DHT22;2357;47.316;-1.348;2023-02-28T01:10:52;3.10;99.90
4687;DHT22;2357;47.316;-1.348;2023-02-28T01:13:18;3.00;99.90
4687;DHT22;2357;47.316;-1.348;2023-02-28T01:15:52;3.00;99.90
4687;DHT22;2357;47.316;-1.348;2023-02-28T01:18:20;2.90;99.90
4687;DHT22;2357;47.316;-1.348;2023-02-28T01:20:46;3.00;99.90
4687;DHT22;2357;47.316;-1.348;2023-02-28T01:23:12;2.80;99.90
4687;DHT22;2357;47.316;-1.348;2023-02-28T01:25:38;2.80;99.90
4687;DHT22;2357;47.316;-1.348;2023-02-28T01:28:04;2.90;99.90
4687;DHT22;2357;47.316;-1.348;2023-02-28T01:30:31;2.80;99.90
4687;DHT22;2357;47.316;-1.348;2023-02-28T01:32:57;2.70;99.90
4687;DHT22;2357;47.316;-1.348;2023-02-28T01:35:23;2.70;99.90
4687;DHT22;2357;47.316;-1.348;2023-02-28T01:37:48;2.70;99.90
4687;DHT22;2357;47.316;-1.348;2023-02-28T01:40:14;2.70;99.90
4687;DHT22;2357;47.316;-1.348;2023-02-28T01:42:40;2.60;99.90
4687;DHT22;2357;47.316;-1.348;2023-02-28T01:45:41;2.50;99.90
4687;DHT22;2357;47.316;-1.348;2023-02-28T01:48:08;2.60;99.90
4687;DHT22;2357;47.316;-1.348;2023-02-28T01:50:38;2.60;99.90
4687;DHT22;2357;47.316;-1.348;2023-02-28T01:53:06;2.50;99.90
4687;DHT22;2357;47.316;-1.348;2023-02-28T01:55:33;2.50;99.90
4687;DHT22;2357;47.316;-1.348;2023-02-28T01:58:02;2.50;99.90
4687;DHT22;2357;47.316;-1.348;2023-02-28T02:00:30;2.40;99.90
4687;DHT22;2357;47.316;-1.348;2023-02-28T02:03:08;2.50;99.90
4687;DHT22;2357;47.316;-1.348;2023-02-28T02:05:36;2.50;99.90
4687;DHT22;2357;47.316;-1.348;2023-02-28T02:08:09;2.60;99.90
4687;DHT22;2357;47.316;-1.348;2023-02-28T02:10:40;2.50;99.90
4687;DHT22;2357;47.316;-1.348;2023-02-28T02:19:28;2.50;99.90
4687;DHT22;2357;47.316;-1.348;2023-02-28T02:27:25;2.50;99.90
4687;DHT22;2357;47.316;-1.348;2023-02-28T02:37:50;2.40;99.90
4687;DHT22;2357;47.316;-1.348;2023-02-28T02:40:22;2.40;99.90
4687;DHT22;2357;47.316;-1.348;2023-02-28T02:42:56;2.40;99.90
4687;DHT22;2357;47.316;-1.348;2023-02-28T02:45:54;2.40;99.90
4687;DHT22;2357;47.316;-1.348;2023-02-28T02:48:24;2.30;99.90
4687;DHT22;2357;47.316;-1.348;2023-02-28T02:50:54;2.30;99.90
4687;DHT22;2357;47.316;-1.348;2023-02-28T02:53:27;2.30;99.90
4687;DHT22;2357;47.316;-1.348;2023-02-28T02:55:55;2.30;99.90
4687;DHT22;2357;47.316;-1.348;2023-02-28T02:58:26;2.30;99.90
4687;DHT22;2357;47.316;-1.348;2023-02-28T03:00:57;2.10;99.90
4687;DHT22;2357;47.316;-1.348;2023-02-28T03:03:25;2.20;99.90
4687;DHT22;2357;47.316;-1.348;2023-02-28T03:05:57;2.20;99.90
4687;DHT22;2357;47.316;-1.348;2023-02-28T03:08:23;2.10;99.90
4687;DHT22;2357;47.316;-1.348;2023-02-28T03:10:51;2.20;99.90
4687;DHT22;2357;47.316;-1.348;2023-02-28T03:16:15;2.20;99.90
4687;DHT22;2357;47.316;-1.348;2023-02-28T03:24:19;1.90;99.90
4687;DHT22;2357;47.316;-1.348;2023-02-28T03:26:54;1.80;99.90
4687;DHT22;2357;47.316;-1.348;2023-02-28T03:29:32;1.80;99.90
4687;DHT22;2357;47.316;-1.348;2023-02-28T03:32:28;1.70;99.90
4687;DHT22;2357;47.316;-1.348;2023-02-28T03:35:05;1.80;99.90
4687;DHT22;2357;47.316;-1.348;2023-02-28T03:37:34;1.80;99.90
4687;DHT22;2357;47.316;-1.348;2023-02-28T03:40:11;1.80;99.90
4687;DHT22;2357;47.316;-1.348;2023-02-28T03:42:41;1.80;99.90
4687;DHT22;2357;47.316;-1.348;2023-02-28T03:48:22;1.70;99.90
4687;DHT22;2357;47.316;-1.348;2023-02-28T03:50:49;1.70;99.90
4687;DHT22;2357;47.316;-1.348;2023-02-28T03:53:44;1.70;99.90
4687;DHT22;2357;47.316;-1.348;2023-02-28T03:56:17;1.70;99.90
4687;DHT22;2357;47.316;-1.348;2023-02-28T03:58:51;1.70;99.90
4687;DHT22;2357;47.316;-1.348;2023-02-28T04:01:23;1.70;99.90
4687;DHT22;2357;47.316;-1.348;2023-02-28T04:03:51;1.80;99.90
4687;DHT22;2357;47.316;-1.348;2023-02-28T04:06:19;1.80;99.90
4687;DHT22;2357;47.316;-1.348;2023-02-28T04:08:46;1.70;99.90
4687;DHT22;2357;47.316;-1.348;2023-02-28T04:11:36;1.80;99.90
4687;DHT22;2357;47.316;-1.348;2023-02-28T04:14:04;1.80;99.90
4687;DHT22;2357;47.316;-1.348;2023-02-28T04:16:31;1.70;99.90
4687;DHT22;2357;47.316;-1.348;2023-02-28T04:18:57;1.80;99.90
4687;DHT22;2357;47.316;-1.348;2023-02-28T04:21:48;1.80;99.90
4687;DHT22;2357;47.316;-1.348;2023-02-28T04:24:16;1.70;99.90
4687;DHT22;2357;47.316;-1.348;2023-02-28T04:26:45;1.80;99.90
4687;DHT22;2357;47.316;-1.348;2023-02-28T04:29:13;1.60;99.90
4687;DHT22;2357;47.316;-1.348;2023-02-28T04:31:39;1.50;99.90
4687;DHT22;2357;47.316;-1.348;2023-02-28T04:34:05;1.60;99.90
4687;DHT22;2357;47.316;-1.348;2023-02-28T04:36:31;1.50;99.90
4687;DHT22;2357;47.316;-1.348;2023-02-28T04:38:56;1.50;99.90
4687;DHT22;2357;47.316;-1.348;2023-02-28T04:41:23;1.50;99.90
4687;DHT22;2357;47.316;-1.348;2023-02-28T04:43:48;1.50;99.90
4687;DHT22;2357;47.316;-1.348;2023-02-28T04:46:14;1.30;99.90
4687;DHT22;2357;47.316;-1.348;2023-02-28T04:48:41;1.50;99.90
4687;DHT22;2357;47.316;-1.348;2023-02-28T04:53:32;1.40;99.90
4687;DHT22;2357;47.316;-1.348;2023-02-28T04:55:58;1.40;99.90
4687;DHT22;2357;47.316;-1.348;2023-02-28T04:58:24;1.40;99.90
4687;DHT22;2357;47.316;-1.348;2023-02-28T05:00:51;1.40;99.90
4687;DHT22;2357;47.316;-1.348;2023-02-28T05:03:17;1.40;99.90
4687;DHT22;2357;47.316;-1.348;2023-02-28T05:05:42;1.40;99.90
4687;DHT22;2357;47.316;-1.348;2023-02-28T05:08:08;1.30;99.90
4687;DHT22;2357;47.316;-1.348;2023-02-28T05:10:35;1.30;99.90
4687;DHT22;2357;47.316;-1.348;2023-02-28T05:13:01;1.30;99.90
4687;DHT22;2357;47.316;-1.348;2023-02-28T05:15:27;1.40;99.90
4687;DHT22;2357;47.316;-1.348;2023-02-28T05:17:53;1.40;99.90
4687;DHT22;2357;47.316;-1.348;2023-02-28T05:20:19;1.40;99.90
4687;DHT22;2357;47.316;-1.348;2023-02-28T05:22:46;1.20;99.90
4687;DHT22;2357;47.316;-1.348;2023-02-28T05:25:20;1.30;99.90
4687;DHT22;2357;47.316;-1.348;2023-02-28T05:27:47;1.20;99.90
4687;DHT22;2357;47.316;-1.348;2023-02-28T05:30:12;1.20;99.90
4687;DHT22;2357;47.316;-1.348;2023-02-28T05:32:39;0.90;99.90
4687;DHT22;2357;47.316;-1.348;2023-02-28T05:35:10;1.00;99.90
4687;DHT22;2357;47.316;-1.348;2023-02-28T05:37:37;1.00;99.90
4687;DHT22;2357;47.316;-1.348;2023-02-28T05:40:04;1.10;99.90
4687;DHT22;2357;47.316;-1.348;2023-02-28T05:42:31;1.00;99.90
4687;DHT22;2357;47.316;-1.348;2023-02-28T05:44:57;0.90;99.90
4687;DHT22;2357;47.316;-1.348;2023-02-28T05:47:24;0.70;99.90
4687;DHT22;2357;47.316;-1.348;2023-02-28T05:49:50;0.90;99.90
4687;DHT22;2357;47.316;-1.348;2023-02-28T05:52:15;1.00;99.90
4687;DHT22;2357;47.316;-1.348;2023-02-28T05:54:41;0.80;99.90
4687;DHT22;2357;47.316;-1.348;2023-02-28T05:57:07;0.80;99.90
4687;DHT22;2357;47.316;-1.348;2023-02-28T05:59:32;1.90;99.90
4687;DHT22;2357;47.316;-1.348;2023-02-28T06:01:58;1.00;99.90
4687;DHT22;2357;47.316;-1.348;2023-02-28T06:04:24;1.00;99.90
4687;DHT22;2357;47.316;-1.348;2023-02-28T06:06:50;1.00;99.90
4687;DHT22;2357;47.316;-1.348;2023-02-28T06:09:16;0.80;99.90
4687;DHT22;2357;47.316;-1.348;2023-02-28T06:11:42;0.70;99.90
4687;DHT22;2357;47.316;-1.348;2023-02-28T06:14:17;0.70;99.90
4687;DHT22;2357;47.316;-1.348;2023-02-28T06:16:43;0.60;99.90
4687;DHT22;2357;47.316;-1.348;2023-02-28T06:19:08;0.70;99.90
4687;DHT22;2357;47.316;-1.348;2023-02-28T06:21:34;0.80;99.90
4687;DHT22;2357;47.316;-1.348;2023-02-28T06:24:00;0.80;99.90
4687;DHT22;2357;47.316;-1.348;2023-02-28T06:26:26;0.70;99.90
4687;DHT22;2357;47.316;-1.348;2023-02-28T06:28:52;0.70;99.90
4687;DHT22;2357;47.316;-1.348;2023-02-28T06:31:17;0.80;99.90
4687;DHT22;2357;47.316;-1.348;2023-02-28T06:33:44;0.70;99.90
4687;DHT22;2357;47.316;-1.348;2023-02-28T06:36:11;0.70;99.90
4687;DHT22;2357;47.316;-1.348;2023-02-28T06:38:38;0.60;99.90
4687;DHT22;2357;47.316;-1.348;2023-02-28T06:41:05;0.60;99.90
4687;DHT22;2357;47.316;-1.348;2023-02-28T06:43:33;0.70;99.90
4687;DHT22;2357;47.316;-1.348;2023-02-28T06:46:02;0.70;99.90
4687;DHT22;2357;47.316;-1.348;2023-02-28T06:48:28;0.60;99.90
4687;DHT22;2357;47.316;-1.348;2023-02-28T06:51:14;0.70;99.90
4687;DHT22;2357;47.316;-1.348;2023-02-28T06:53:40;0.70;99.90
4687;DHT22;2357;47.316;-1.348;2023-02-28T06:56:08;0.70;99.90
4687;DHT22;2357;47.316;-1.348;2023-02-28T06:58:35;0.80;99.90
4687;DHT22;2357;47.316;-1.348;2023-02-28T07:01:01;0.80;99.90
4687;DHT22;2357;47.316;-1.348;2023-02-28T07:03:27;0.90;99.90
4687;DHT22;2357;47.316;-1.348;2023-02-28T07:05:53;0.90;99.90
4687;DHT22;2357;47.316;-1.348;2023-02-28T07:08:18;1.00;99.90
4687;DHT22;2357;47.316;-1.348;2023-02-28T07:10:44;1.00;99.90
4687;DHT22;2357;47.316;-1.348;2023-02-28T07:13:10;1.10;99.90
4687;DHT22;2357;47.316;-1.348;2023-02-28T07:15:37;1.10;99.90
4687;DHT22;2357;47.316;-1.348;2023-02-28T07:18:03;1.10;99.90
4687;DHT22;2357;47.316;-1.348;2023-02-28T07:20:28;1.00;99.90
4687;DHT22;2357;47.316;-1.348;2023-02-28T07:22:54;1.10;99.90
4687;DHT22;2357;47.316;-1.348;2023-02-28T07:25:23;1.00;99.90
4687;DHT22;2357;47.316;-1.348;2023-02-28T07:27:49;1.00;99.90
4687;DHT22;2357;47.316;-1.348;2023-02-28T07:30:15;1.20;99.90
4687;DHT22;2357;47.316;-1.348;2023-02-28T07:32:41;1.30;99.90
4687;DHT22;2357;47.316;-1.348;2023-02-28T07:35:07;1.40;99.90
4687;DHT22;2357;47.316;-1.348;2023-02-28T07:37:33;1.50;99.90
4687;DHT22;2357;47.316;-1.348;2023-02-28T07:40:06;1.90;99.90
4687;DHT22;2357;47.316;-1.348;2023-02-28T07:42:34;1.50;99.90
4687;DHT22;2357;47.316;-1.348;2023-02-28T07:45:00;1.50;99.90
4687;DHT22;2357;47.316;-1.348;2023-02-28T07:47:26;1.50;99.90
4687;DHT22;2357;47.316;-1.348;2023-02-28T07:49:53;1.50;99.90
4687;DHT22;2357;47.316;-1.348;2023-02-28T07:52:19;1.40;99.90
4687;DHT22;2357;47.316;-1.348;2023-02-28T07:54:45;1.50;99.90
4687;DHT22;2357;47.316;-1.348;2023-02-28T07:57:10;1.50;99.90
4687;DHT22;2357;47.316;-1.348;2023-02-28T07:59:36;1.60;99.90
4687;DHT22;2357;47.316;-1.348;2023-02-28T08:02:02;1.70;99.90
4687;DHT22;2357;47.316;-1.348;2023-02-28T08:04:27;1.70;99.90
4687;DHT22;2357;47.316;-1.348;2023-02-28T08:06:54;1.80;99.90
4687;DHT22;2357;47.316;-1.348;2023-02-28T08:09:21;1.90;99.90
4687;DHT22;2357;47.316;-1.348;2023-02-28T08:11:47;1.90;99.90
4687;DHT22;2357;47.316;-1.348;2023-02-28T08:14:13;1.90;99.90
4687;DHT22;2357;47.316;-1.348;2023-02-28T08:16:39;2.00;99.90
4687;DHT22;2357;47.316;-1.348;2023-02-28T08:19:04;2.10;99.90
4687;DHT22;2357;47.316;-1.348;2023-02-28T08:21:30;2.10;99.90
4687;DHT22;2357;47.316;-1.348;2023-02-28T08:23:56;2.10;99.90
4687;DHT22;2357;47.316;-1.348;2023-02-28T08:26:22;2.10;99.90
4687;DHT22;2357;47.316;-1.348;2023-02-28T08:28:48;2.20;99.90
4687;DHT22;2357;47.316;-1.348;2023-02-28T08:31:15;2.20;99.90
4687;DHT22;2357;47.316;-1.348;2023-02-28T08:33:42;2.20;99.90
4687;DHT22;2357;47.316;-1.348;2023-02-28T08:36:08;2.20;99.90
4687;DHT22;2357;47.316;-1.348;2023-02-28T08:38:35;2.30;99.90
4687;DHT22;2357;47.316;-1.348;2023-02-28T08:41:04;2.30;99.90
4687;DHT22;2357;47.316;-1.348;2023-02-28T08:43:33;2.40;99.90
4687;DHT22;2357;47.316;-1.348;2023-02-28T08:45:59;2.50;99.90
4687;DHT22;2357;47.316;-1.348;2023-02-28T08:48:26;2.50;99.90
4687;DHT22;2357;47.316;-1.348;2023-02-28T08:51:03;2.60;99.90
4687;DHT22;2357;47.316;-1.348;2023-02-28T08:53:29;2.60;99.90
4687;DHT22;2357;47.316;-1.348;2023-02-28T08:56:03;2.70;99.90
4687;DHT22;2357;47.316;-1.348;2023-02-28T08:58:29;2.80;99.90
4687;DHT22;2357;47.316;-1.348;2023-02-28T09:00:55;2.80;99.90
4687;DHT22;2357;47.316;-1.348;2023-02-28T09:03:21;2.80;99.90
4687;DHT22;2357;47.316;-1.348;2023-02-28T09:05:58;2.90;99.90
4687;DHT22;2357;47.316;-1.348;2023-02-28T09:08:25;2.90;99.90
4687;DHT22;2357;47.316;-1.348;2023-02-28T09:10:51;2.90;99.90
4687;DHT22;2357;47.316;-1.348;2023-02-28T09:13:18;2.90;99.90
4687;DHT22;2357;47.316;-1.348;2023-02-28T09:15:44;3.00;99.90
4687;DHT22;2357;47.316;-1.348;2023-02-28T09:18:10;2.90;99.90
4687;DHT22;2357;47.316;-1.348;2023-02-28T09:20:39;2.90;99.90
4687;DHT22;2357;47.316;-1.348;2023-02-28T09:23:06;3.00;99.90
4687;DHT22;2357;47.316;-1.348;2023-02-28T09:25:32;3.10;99.90
4687;DHT22;2357;47.316;-1.348;2023-02-28T09:27:57;3.10;99.90
4687;DHT22;2357;47.316;-1.348;2023-02-28T09:30:23;3.20;99.90
4687;DHT22;2357;47.316;-1.348;2023-02-28T09:32:48;3.20;99.90
4687;DHT22;2357;47.316;-1.348;2023-02-28T09:35:24;3.30;99.90
4687;DHT22;2357;47.316;-1.348;2023-02-28T09:37:51;3.40;99.90
4687;DHT22;2357;47.316;-1.348;2023-02-28T09:40:21;3.40;99.90
4687;DHT22;2357;47.316;-1.348;2023-02-28T09:42:49;3.40;99.90
4687;DHT22;2357;47.316;-1.348;2023-02-28T09:45:35;3.50;99.90
4687;DHT22;2357;47.316;-1.348;2023-02-28T09:48:12;3.60;99.90
4687;DHT22;2357;47.316;-1.348;2023-02-28T09:53:27;3.60;99.90
4687;DHT22;2357;47.316;-1.348;2023-02-28T09:55:58;3.70;99.90
4687;DHT22;2357;47.316;-1.348;2023-02-28T10:01:45;3.80;99.90
4687;DHT22;2357;47.316;-1.348;2023-02-28T10:06:56;3.90;99.90
4687;DHT22;2357;47.316;-1.348;2023-02-28T10:09:29;3.90;99.90
4687;DHT22;2357;47.316;-1.348;2023-02-28T10:12:00;4.00;99.90
4687;DHT22;2357;47.316;-1.348;2023-02-28T10:14:29;4.10;99.90
4687;DHT22;2357;47.316;-1.348;2023-02-28T10:19:38;4.20;99.90
4687;DHT22;2357;47.316;-1.348;2023-02-28T10:24:58;4.50;99.90
4687;DHT22;2357;47.316;-1.348;2023-02-28T10:27:30;4.50;99.90
4687;DHT22;2357;47.316;-1.348;2023-02-28T10:29:58;4.60;99.90
4687;DHT22;2357;47.316;-1.348;2023-02-28T10:32:30;4.60;99.90
4687;DHT22;2357;47.316;-1.348;2023-02-28T10:35:10;4.70;99.90
4687;DHT22;2357;47.316;-1.348;2023-02-28T10:37:40;4.80;99.90
4687;DHT22;2357;47.316;-1.348;2023-02-28T10:43:20;5.00;99.90
4687;DHT22;2357;47.316;-1.348;2023-02-28T10:46:04;5.00;99.90
4687;DHT22;2357;47.316;-1.348;2023-02-28T10:48:40;5.10;99.90
4687;DHT22;2357;47.316;-1.348;2023-02-28T10:51:12;5.20;99.90
4687;DHT22;2357;47.316;-1.348;2023-02-28T10:53:52;5.20;99.90
4687;DHT22;2357;47.316;-1.348;2023-02-28T10:56:22;5.20;99.90
4687;DHT22;2357;47.316;-1.348;2023-02-28T11:01:36;5.30;99.90
4687;DHT22;2357;47.316;-1.348;2023-02-28T11:04:49;5.50;99.90
4687;DHT22;2357;47.316;-1.348;2023-02-28T11:07:00;5.50;99.90
4687;DHT22;2357;47.316;-1.348;2023-02-28T11:09:38;5.60;99.90
4687;DHT22;2357;47.316;-1.348;2023-02-28T11:12:07;5.70;99.90
4687;DHT22;2357;47.316;-1.348;2023-02-28T11:14:49;5.70;99.90
4687;DHT22;2357;47.316;-1.348;2023-02-28T11:17:21;5.80;99.90
4687;DHT22;2357;47.316;-1.348;2023-02-28T11:19:51;5.70;99.90
4687;DHT22;2357;47.316;-1.348;2023-02-28T11:22:20;5.70;99.90
4687;DHT22;2357;47.316;-1.348;2023-02-28T11:24:50;5.70;99.90
4687;DHT22;2357;47.316;-1.348;2023-02-28T11:29:55;5.90;99.90
4687;DHT22;2357;47.316;-1.348;2023-02-28T11:32:23;6.00;99.90
4687;DHT22;2357;47.316;-1.348;2023-02-28T11:37:37;6.20;99.90
4687;DHT22;2357;47.316;-1.348;2023-02-28T11:40:13;6.30;99.90
4687;DHT22;2357;47.316;-1.348;2023-02-28T11:43:08;6.30;99.90
4687;DHT22;2357;47.316;-1.348;2023-02-28T11:46:30;6.30;99.90
4687;DHT22;2357;47.316;-1.348;2023-02-28T11:57:51;6.30;99.90
4687;DHT22;2357;47.316;-1.348;2023-02-28T12:03:25;6.50;99.90
4687;DHT22;2357;47.316;-1.348;2023-02-28T12:06:20;6.70;99.90
4687;DHT22;2357;47.316;-1.348;2023-02-28T12:20:34;7.50;99.90
4687;DHT22;2357;47.316;-1.348;2023-02-28T12:29:01;7.60;99.90
4687;DHT22;2357;47.316;-1.348;2023-02-28T12:31:35;7.80;99.90
4687;DHT22;2357;47.316;-1.348;2023-02-28T12:34:05;7.60;99.90
4687;DHT22;2357;47.316;-1.348;2023-02-28T12:36:32;7.70;99.90
4687;DHT22;2357;47.316;-1.348;2023-02-28T12:39:23;8.00;99.90
4687;DHT22;2357;47.316;-1.348;2023-02-28T12:41:53;7.90;99.90
4687;DHT22;2357;47.316;-1.348;2023-02-28T12:44:30;8.00;99.90
4687;DHT22;2357;47.316;-1.348;2023-02-28T12:47:02;8.00;99.90
4687;DHT22;2357;47.316;-1.348;2023-02-28T12:49:38;8.30;99.90
4687;DHT22;2357;47.316;-1.348;2023-02-28T12:52:04;8.50;99.90
4687;DHT22;2357;47.316;-1.348;2023-02-28T12:57:27;8.60;99.90
4687;DHT22;2357;47.316;-1.348;2023-02-28T13:00:02;8.50;99.90
4687;DHT22;2357;47.316;-1.348;2023-02-28T13:03:06;8.50;99.90
4687;DHT22;2357;47.316;-1.348;2023-02-28T13:05:26;8.50;99.90
4687;DHT22;2357;47.316;-1.348;2023-02-28T13:10:48;8.90;99.90
4687;DHT22;2357;47.316;-1.348;2023-02-28T13:13:22;9.10;99.90
4687;DHT22;2357;47.316;-1.348;2023-02-28T13:18:37;9.20;99.90
4687;DHT22;2357;47.316;-1.348;2023-02-28T13:21:09;9.30;99.90
4687;DHT22;2357;47.316;-1.348;2023-02-28T13:23:58;9.30;99.90
4687;DHT22;2357;47.316;-1.348;2023-02-28T13:32:18;9.50;99.90
4687;DHT22;2357;47.316;-1.348;2023-02-28T13:37:36;9.60;99.90
4687;DHT22;2357;47.316;-1.348;2023-02-28T13:40:32;9.50;99.90
4687;DHT22;2357;47.316;-1.348;2023-02-28T13:43:02;9.80;99.90
4687;DHT22;2357;47.316;-1.348;2023-02-28T13:45:29;9.90;99.90
4687;DHT22;2357;47.316;-1.348;2023-02-28T13:50:43;10.00;99.90
4687;DHT22;2357;47.316;-1.348;2023-02-28T13:58:48;10.00;99.90
4687;DHT22;2357;47.316;-1.348;2023-02-28T14:06:35;10.20;99.90
4687;DHT22;2357;47.316;-1.348;2023-02-28T14:11:39;10.40;99.90
4687;DHT22;2357;47.316;-1.348;2023-02-28T14:14:07;10.30;99.90
4687;DHT22;2357;47.316;-1.348;2023-02-28T14:16:40;10.30;99.90
4687;DHT22;2357;47.316;-1.348;2023-02-28T14:24:46;10.50;99.90
4687;DHT22;2357;47.316;-1.348;2023-02-28T14:30:03;10.90;99.90
4687;DHT22;2357;47.316;-1.348;2023-02-28T14:38:27;10.80;99.90
4687;DHT22;2357;47.316;-1.348;2023-02-28T14:40:55;10.70;99.90
4687;DHT22;2357;47.316;-1.348;2023-02-28T14:43:24;10.70;99.90
4687;DHT22;2357;47.316;-1.348;2023-02-28T14:46:01;10.80;99.90
4687;DHT22;2357;47.316;-1.348;2023-02-28T14:48:28;10.90;99.90
4687;DHT22;2357;47.316;-1.348;2023-02-28T14:50:57;11.10;99.90
4687;DHT22;2357;47.316;-1.348;2023-02-28T14:53:26;10.80;99.90
4687;DHT22;2357;47.316;-1.348;2023-02-28T14:55:52;11.00;99.90
4687;DHT22;2357;47.316;-1.348;2023-02-28T15:00:52;11.00;99.90
4687;DHT22;2357;47.316;-1.348;2023-02-28T15:03:33;10.90;99.90
4687;DHT22;2357;47.316;-1.348;2023-02-28T15:06:12;10.90;99.90
4687;DHT22;2357;47.316;-1.348;2023-02-28T15:08:38;11.30;99.90
4687;DHT22;2357;47.316;-1.348;2023-02-28T15:11:11;11.40;99.90
4687;DHT22;2357;47.316;-1.348;2023-02-28T15:13:47;11.30;99.90
4687;DHT22;2357;47.316;-1.348;2023-02-28T15:16:17;11.10;99.90
4687;DHT22;2357;47.316;-1.348;2023-02-28T15:18:47;11.20;99.90
4687;DHT22;2357;47.316;-1.348;2023-02-28T15:21:19;10.80;99.90
4687;DHT22;2357;47.316;-1.348;2023-02-28T15:23:50;10.50;99.90
4687;DHT22;2357;47.316;-1.348;2023-02-28T15:26:22;10.40;99.90
4687;DHT22;2357;47.316;-1.348;2023-02-28T15:29:05;10.70;99.90
4687;DHT22;2357;47.316;-1.348;2023-02-28T15:31:33;10.80;99.90
4687;DHT22;2357;47.316;-1.348;2023-02-28T15:34:04;10.30;99.90
4687;DHT22;2357;47.316;-1.348;2023-02-28T15:36:33;10.20;99.90
4687;DHT22;2357;47.316;-1.348;2023-02-28T15:39:02;10.10;99.90
4687;DHT22;2357;47.316;-1.348;2023-02-28T15:41:30;11.80;99.90
4687;DHT22;2357;47.316;-1.348;2023-02-28T15:44:16;13.60;99.90
4687;DHT22;2357;47.316;-1.348;2023-02-28T15:46:57;14.20;99.90
4687;DHT22;2357;47.316;-1.348;2023-02-28T15:49:24;13.30;99.90
4687;DHT22;2357;47.316;-1.348;2023-02-28T15:51:51;13.00;99.90
4687;DHT22;2357;47.316;-1.348;2023-02-28T15:54:24;11.90;99.90
4687;DHT22;2357;47.316;-1.348;2023-02-28T15:56:55;12.10;99.90
4687;DHT22;2357;47.316;-1.348;2023-02-28T15:59:27;11.50;99.90
4687;DHT22;2357;47.316;-1.348;2023-02-28T16:02:19;11.10;99.90
4687;DHT22;2357;47.316;-1.348;2023-02-28T16:05:19;11.10;99.90
4687;DHT22;2357;47.316;-1.348;2023-02-28T16:07:46;10.60;99.90
4687;DHT22;2357;47.316;-1.348;2023-02-28T16:10:13;10.40;99.90
4687;DHT22;2357;47.316;-1.348;2023-02-28T16:12:42;10.10;99.90
4687;DHT22;2357;47.316;-1.348;2023-02-28T16:15:25;9.70;99.90
4687;DHT22;2357;47.316;-1.348;2023-02-28T16:17:52;9.60;99.90
4687;DHT22;2357;47.316;-1.348;2023-02-28T16:20:23;9.50;99.90
4687;DHT22;2357;47.316;-1.348;2023-02-28T16:22:50;9.30;99.90
4687;DHT22;2357;47.316;-1.348;2023-02-28T16:25:19;9.30;99.90
4687;DHT22;2357;47.316;-1.348;2023-02-28T16:27:49;9.50;99.90
4687;DHT22;2357;47.316;-1.348;2023-02-28T16:30:21;10.70;99.90
4687;DHT22;2357;47.316;-1.348;2023-02-28T16:32:47;10.90;99.90
4687;DHT22;2357;47.316;-1.348;2023-02-28T16:35:13;11.30;99.90
4687;DHT22;2357;47.316;-1.348;2023-02-28T16:37:39;11.60;99.90
4687;DHT22;2357;47.316;-1.348;2023-02-28T16:40:17;11.00;99.90
4687;DHT22;2357;47.316;-1.348;2023-02-28T16:42:45;10.30;99.90
4687;DHT22;2357;47.316;-1.348;2023-02-28T16:45:19;9.70;99.90
4687;DHT22;2357;47.316;-1.348;2023-02-28T16:47:46;9.40;99.90
4687;DHT22;2357;47.316;-1.348;2023-02-28T16:52:45;9.20;99.90
4687;DHT22;2357;47.316;-1.348;2023-02-28T16:55:11;9.00;99.90
4687;DHT22;2357;47.316;-1.348;2023-02-28T16:57:38;8.90;99.90
4687;DHT22;2357;47.316;-1.348;2023-02-28T17:00:05;8.80;99.90
4687;DHT22;2357;47.316;-1.348;2023-02-28T17:02:33;8.60;99.90
4687;DHT22;2357;47.316;-1.348;2023-02-28T17:04:59;8.60;99.90
4687;DHT22;2357;47.316;-1.348;2023-02-28T17:07:24;8.50;99.90
4687;DHT22;2357;47.316;-1.348;2023-02-28T17:09:50;8.50;99.90
4687;DHT22;2357;47.316;-1.348;2023-02-28T17:12:16;8.40;99.90
4687;DHT22;2357;47.316;-1.348;2023-02-28T17:14:41;8.30;99.90
4687;DHT22;2357;47.316;-1.348;2023-02-28T17:17:13;8.20;99.90
4687;DHT22;2357;47.316;-1.348;2023-02-28T17:19:41;8.10;99.90
4687;DHT22;2357;47.316;-1.348;2023-02-28T17:22:09;8.10;99.90
4687;DHT22;2357;47.316;-1.348;2023-02-28T17:24:34;8.20;99.90
4687;DHT22;2357;47.316;-1.348;2023-02-28T17:27:00;8.10;99.90
4687;DHT22;2357;47.316;-1.348;2023-02-28T17:29:26;8.00;99.90
4687;DHT22;2357;47.316;-1.348;2023-02-28T17:31:52;8.00;99.90
4687;DHT22;2357;47.316;-1.348;2023-02-28T17:34:18;7.90;99.90
4687;DHT22;2357;47.316;-1.348;2023-02-28T17:36:45;7.90;99.90
4687;DHT22;2357;47.316;-1.348;2023-02-28T17:39:13;7.80;99.90
4687;DHT22;2357;47.316;-1.348;2023-02-28T17:41:40;7.80;99.90
4687;DHT22;2357;47.316;-1.348;2023-02-28T17:44:07;7.80;99.90
4687;DHT22;2357;47.316;-1.348;2023-02-28T17:46:34;7.70;99.90
4687;DHT22;2357;47.316;-1.348;2023-02-28T17:49:00;7.60;99.90
4687;DHT22;2357;47.316;-1.348;2023-02-28T17:51:26;7.70;99.90
4687;DHT22;2357;47.316;-1.348;2023-02-28T17:53:52;7.70;99.90
4687;DHT22;2357;47.316;-1.348;2023-02-28T17:56:25;7.60;99.90
4687;DHT22;2357;47.316;-1.348;2023-02-28T17:58:53;7.40;99.90
4687;DHT22;2357;47.316;-1.348;2023-02-28T18:01:20;7.50;99.90
4687;DHT22;2357;47.316;-1.348;2023-02-28T18:03:47;7.40;99.90
4687;DHT22;2357;47.316;-1.348;2023-02-28T18:06:34;7.40;99.90
4687;DHT22;2357;47.316;-1.348;2023-02-28T18:09:00;7.30;99.90
4687;DHT22;2357;47.316;-1.348;2023-02-28T18:11:26;7.30;99.90
4687;DHT22;2357;47.316;-1.348;2023-02-28T18:14:06;7.30;99.90
4687;DHT22;2357;47.316;-1.348;2023-02-28T18:16:32;7.30;99.90
4687;DHT22;2357;47.316;-1.348;2023-02-28T18:18:58;7.10;99.90
4687;DHT22;2357;47.316;-1.348;2023-02-28T18:21:23;7.10;99.90
4687;DHT22;2357;47.316;-1.348;2023-02-28T18:23:49;7.10;99.90
4687;DHT22;2357;47.316;-1.348;2023-02-28T18:26:17;7.00;99.90
4687;DHT22;2357;47.316;-1.348;2023-02-28T18:28:44;6.90;99.90
4687;DHT22;2357;47.316;-1.348;2023-02-28T18:31:15;6.90;99.90
4687;DHT22;2357;47.316;-1.348;2023-02-28T18:33:42;6.90;99.90
4687;DHT22;2357;47.316;-1.348;2023-02-28T18:36:08;6.70;99.90